sensor_id;sensor_type;location;lat;lon;timestamp;temperature;humidity
69938;DHT22;57248;47.320;15.998;2023-05-21T00:00:31;13.64;90.33
69938;DHT22;57248;47.320;15.998;2023-05-21T00:03:03;13.64;91.30
69938;DHT22;57248;47.320;15.998;2023-05-21T00:05:35;13.66;90.68
69938;DHT22;57248;47.320;15.998;2023-05-21T00:08:07;13.74;91.09
69938;DHT22;57248;47.320;15.998;2023-05-21T00:10:39;13.78;90.60
69938;DHT22;57248;47.320;15.998;2023-05-21T00:13:11;13.81;90.21
69938;DHT22;57248;47.320;15.998;2023-05-21T00:15:43;13.81;90.13
69938;DHT22;57248;47.320;15.998;2023-05-21T00:18:15;13.77;90.13
69938;DHT22;57248;47.320;15.998;2023-05-21T00:20:47;13.81;91.10
69938;DHT22;57248;47.320;15.998;2023-05-21T00:23:19;13.82;90.95
69938;DHT22;57248;47.320;15.998;2023-05-21T00:25:52;13.80;91.20
69938;DHT22;57248;47.320;15.998;2023-05-21T00:28:17;13.85;90.73
69938;DHT22;57248;47.320;15.998;2023-05-21T00:30:50;13.74;91.60
69938;DHT22;57248;47.320;15.998;2023-05-21T00:33:22;13.90;90.19
69938;DHT22;57248;47.320;15.998;2023-05-21T00:35:57;13.85;90.42
69938;DHT22;57248;47.320;15.998;2023-05-21T00:38:23;13.88;90.65
69938;DHT22;57248;47.320;15.998;2023-05-21T00:40:54;13.88;90.74
69938;DHT22;57248;47.320;15.998;2023-05-21T00:43:26;13.75;91.64
69938;DHT22;57248;47.320;15.998;2023-05-21T00:45:58;13.80;91.31
69938;DHT22;57248;47.320;15.998;2023-05-21T00:48:30;13.82;91.51
69938;DHT22;57248;47.320;15.998;2023-05-21T00:51:04;13.85;91.12
69938;DHT22;57248;47.320;15.998;2023-05-21T00:53:37;13.85;90.90
69938;DHT22;57248;47.320;15.998;2023-05-21T00:56:16;13.87;90.73
69938;DHT22;57248;47.320;15.998;2023-05-21T00:58:50;13.75;91.63
69938;DHT22;57248;47.320;15.998;2023-05-21T01:01:30;13.66;92.56
69938;DHT22;57248;47.320;15.998;2023-05-21T01:04:04;13.74;91.45
69938;DHT22;57248;47.320;15.998;2023-05-21T01:06:37;13.67;91.50
69938;DHT22;57248;47.320;15.998;2023-05-21T01:09:08;13.60;91.67
69938;DHT22;57248;47.320;15.998;2023-05-21T01:11:44;13.61;91.72
69938;DHT22;57248;47.320;15.998;2023-05-21T01:14:17;13.60;91.67
69938;DHT22;57248;47.320;15.998;2023-05-21T01:16:51;13.56;91.98
69938;DHT22;57248;47.320;15.998;2023-05-21T01:19:23;13.53;92.12
69938;DHT22;57248;47.320;15.998;2023-05-21T01:21:59;13.51;91.80
69938;DHT22;57248;47.320;15.998;2023-05-21T01:24:32;13.49;91.60
69938;DHT22;57248;47.320;15.998;2023-05-21T01:27:04;13.42;91.36
69938;DHT22;57248;47.320;15.998;2023-05-21T01:29:38;13.27;92.45
69938;DHT22;57248;47.320;15.998;2023-05-21T01:35:01;13.23;92.20
69938;DHT22;57248;47.320;15.998;2023-05-21T01:37:45;13.18;91.96
69938;DHT22;57248;47.320;15.998;2023-05-21T01:40:30;13.16;91.78
69938;DHT22;57248;47.320;15.998;2023-05-21T01:43:07;13.08;91.47
69938;DHT22;57248;47.320;15.998;2023-05-21T01:45:41;13.05;91.83
69938;DHT22;57248;47.320;15.998;2023-05-21T01:48:15;12.89;93.16
69938;DHT22;57248;47.320;15.998;2023-05-21T01:50:48;12.95;93.33
69938;DHT22;57248;47.320;15.998;2023-05-21T01:53:21;12.88;93.03
69938;DHT22;57248;47.320;15.998;2023-05-21T01:55:59;12.79;93.31
69938;DHT22;57248;47.320;15.998;2023-05-21T01:58:31;12.82;92.88
69938;DHT22;57248;47.320;15.998;2023-05-21T02:01:04;12.75;93.01
69938;DHT22;57248;47.320;15.998;2023-05-21T02:03:35;12.69;93.46
69938;DHT22;57248;47.320;15.998;2023-05-21T02:06:07;12.72;93.63
69938;DHT22;57248;47.320;15.998;2023-05-21T02:08:39;12.71;93.60
69938;DHT22;57248;47.320;15.998;2023-05-21T02:11:11;12.69;93.14
69938;DHT22;57248;47.320;15.998;2023-05-21T02:13:37;12.65;93.37
69938;DHT22;57248;47.320;15.998;2023-05-21T02:16:13;12.64;92.87
69938;DHT22;57248;47.320;15.998;2023-05-21T02:18:40;12.67;92.87
69938;DHT22;57248;47.320;15.998;2023-05-21T02:21:13;12.68;93.19
69938;DHT22;57248;47.320;15.998;2023-05-21T02:23:39;12.57;92.53
69938;DHT22;57248;47.320;15.998;2023-05-21T02:26:12;12.52;92.35
69938;DHT22;57248;47.320;15.998;2023-05-21T02:28:44;12.45;92.13
69938;DHT22;57248;47.320;15.998;2023-05-21T02:31:16;12.37;92.01
69938;DHT22;57248;47.320;15.998;2023-05-21T02:33:48;12.27;91.53
69938;DHT22;57248;47.320;15.998;2023-05-21T02:36:20;12.16;92.82
69938;DHT22;57248;47.320;15.998;2023-05-21T02:38:53;12.20;91.86
69938;DHT22;57248;47.320;15.998;2023-05-21T02:41:26;12.14;93.40
69938;DHT22;57248;47.320;15.998;2023-05-21T02:43:58;12.01;93.03
69938;DHT22;57248;47.320;15.998;2023-05-21T02:46:30;12.09;93.38
69938;DHT22;57248;47.320;15.998;2023-05-21T02:49:02;12.09;93.67
69938;DHT22;57248;47.320;15.998;2023-05-21T02:51:35;11.97;93.08
69938;DHT22;57248;47.320;15.998;2023-05-21T02:54:06;12.01;92.86
69938;DHT22;57248;47.320;15.998;2023-05-21T02:56:38;11.93;92.94
69938;DHT22;57248;47.320;15.998;2023-05-21T02:59:18;11.93;92.95
69938;DHT22;57248;47.320;15.998;2023-05-21T03:01:50;11.90;94.17
69938;DHT22;57248;47.320;15.998;2023-05-21T03:04:23;11.85;93.68
69938;DHT22;57248;47.320;15.998;2023-05-21T03:06:56;11.78;93.63
69938;DHT22;57248;47.320;15.998;2023-05-21T03:09:27;11.72;93.42
69938;DHT22;57248;47.320;15.998;2023-05-21T03:11:59;11.73;93.37
69938;DHT22;57248;47.320;15.998;2023-05-21T03:14:31;11.76;93.55
69938;DHT22;57248;47.320;15.998;2023-05-21T03:17:04;11.65;94.52
69938;DHT22;57248;47.320;15.998;2023-05-21T03:19:36;11.68;94.22
69938;DHT22;57248;47.320;15.998;2023-05-21T03:22:09;11.71;93.74
69938;DHT22;57248;47.320;15.998;2023-05-21T03:24:41;11.69;92.88
69938;DHT22;57248;47.320;15.998;2023-05-21T03:27:09;11.69;93.05
69938;DHT22;57248;47.320;15.998;2023-05-21T03:29:41;11.72;92.99
69938;DHT22;57248;47.320;15.998;2023-05-21T03:32:14;11.73;93.68
69938;DHT22;57248;47.320;15.998;2023-05-21T03:34:47;11.78;93.17
69938;DHT22;57248;47.320;15.998;2023-05-21T03:37:18;11.83;92.66
69938;DHT22;57248;47.320;15.998;2023-05-21T03:39:50;11.82;93.12
69938;DHT22;57248;47.320;15.998;2023-05-21T03:42:24;11.89;93.70
69938;DHT22;57248;47.320;15.998;2023-05-21T03:44:56;11.92;93.72
69938;DHT22;57248;47.320;15.998;2023-05-21T03:47:57;11.94;92.58
69938;DHT22;57248;47.320;15.998;2023-05-21T03:50:29;12.03;93.20
69938;DHT22;57248;47.320;15.998;2023-05-21T03:53:01;12.03;92.85
69938;DHT22;57248;47.320;15.998;2023-05-21T03:55:27;12.12;92.57
69938;DHT22;57248;47.320;15.998;2023-05-21T03:58:07;12.16;93.61
69938;DHT22;57248;47.320;15.998;2023-05-21T04:00:40;12.27;93.13
69938;DHT22;57248;47.320;15.998;2023-05-21T04:03:12;12.31;93.71
69938;DHT22;57248;47.320;15.998;2023-05-21T04:05:41;12.36;93.29
69938;DHT22;57248;47.320;15.998;2023-05-21T04:08:12;12.45;92.91
69938;DHT22;57248;47.320;15.998;2023-05-21T04:10:38;12.54;92.86
69938;DHT22;57248;47.320;15.998;2023-05-21T04:13:09;12.69;93.11
69938;DHT22;57248;47.320;15.998;2023-05-21T04:15:41;12.78;91.91
69938;DHT22;57248;47.320;15.998;2023-05-21T04:18:15;12.87;92.02
69938;DHT22;57248;47.320;15.998;2023-05-21T04:20:47;12.98;92.06
69938;DHT22;57248;47.320;15.998;2023-05-21T04:23:20;12.99;92.05
69938;DHT22;57248;47.320;15.998;2023-05-21T04:25:55;13.02;92.14
69938;DHT22;57248;47.320;15.998;2023-05-21T04:28:28;13.26;91.42
69938;DHT22;57248;47.320;15.998;2023-05-21T04:31:01;13.39;91.10
69938;DHT22;57248;47.320;15.998;2023-05-21T04:33:34;13.49;91.64
69938;DHT22;57248;47.320;15.998;2023-05-21T04:36:07;13.68;90.67
69938;DHT22;57248;47.320;15.998;2023-05-21T04:38:43;13.91;90.50
69938;DHT22;57248;47.320;15.998;2023-05-21T04:41:14;14.05;90.96
69938;DHT22;57248;47.320;15.998;2023-05-21T04:43:43;14.30;89.50
69938;DHT22;57248;47.320;15.998;2023-05-21T04:46:15;14.43;90.31
69938;DHT22;57248;47.320;15.998;2023-05-21T04:48:47;14.69;88.71
69938;DHT22;57248;47.320;15.998;2023-05-21T04:51:21;14.81;89.29
69938;DHT22;57248;47.320;15.998;2023-05-21T04:53:56;15.03;88.73
69938;DHT22;57248;47.320;15.998;2023-05-21T04:56:30;15.28;89.11
69938;DHT22;57248;47.320;15.998;2023-05-21T04:59:09;15.52;87.55
69938;DHT22;57248;47.320;15.998;2023-05-21T05:01:41;15.72;87.57
69938;DHT22;57248;47.320;15.998;2023-05-21T05:04:14;15.99;88.90
69938;DHT22;57248;47.320;15.998;2023-05-21T05:06:47;15.99;86.33
69938;DHT22;57248;47.320;15.998;2023-05-21T05:09:19;15.93;86.03
69938;DHT22;57248;47.320;15.998;2023-05-21T05:11:52;16.07;86.23
69938;DHT22;57248;47.320;15.998;2023-05-21T05:14:24;16.31;85.87
69938;DHT22;57248;47.320;15.998;2023-05-21T05:16:57;16.51;84.95
69938;DHT22;57248;47.320;15.998;2023-05-21T05:19:30;16.91;84.14
69938;DHT22;57248;47.320;15.998;2023-05-21T05:22:02;17.22;82.28
69938;DHT22;57248;47.320;15.998;2023-05-21T05:24:34;17.63;82.19
69938;DHT22;57248;47.320;15.998;2023-05-21T05:27:01;18.18;79.83
69938;DHT22;57248;47.320;15.998;2023-05-21T05:29:32;18.89;77.49
69938;DHT22;57248;47.320;15.998;2023-05-21T05:32:05;19.24;75.55
69938;DHT22;57248;47.320;15.998;2023-05-21T05:34:37;19.48;76.20
69938;DHT22;57248;47.320;15.998;2023-05-21T05:37:10;19.36;75.70
69938;DHT22;57248;47.320;15.998;2023-05-21T05:39:42;19.03;75.20
69938;DHT22;57248;47.320;15.998;2023-05-21T05:42:16;18.70;72.06
69938;DHT22;57248;47.320;15.998;2023-05-21T05:44:48;19.03;72.73
69938;DHT22;57248;47.320;15.998;2023-05-21T05:47:21;20.10;71.45
69938;DHT22;57248;47.320;15.998;2023-05-21T05:49:53;20.02;67.11
69938;DHT22;57248;47.320;15.998;2023-05-21T05:52:25;20.10;66.83
69938;DHT22;57248;47.320;15.998;2023-05-21T05:54:57;20.44;68.40
69938;DHT22;57248;47.320;15.998;2023-05-21T05:57:37;21.22;65.64
69938;DHT22;57248;47.320;15.998;2023-05-21T06:00:13;22.49;63.96
69938;DHT22;57248;47.320;15.998;2023-05-21T06:02:48;22.01;63.00
69938;DHT22;57248;47.320;15.998;2023-05-21T06:05:20;21.59;61.83
69938;DHT22;57248;47.320;15.998;2023-05-21T06:07:45;22.65;63.25
69938;DHT22;57248;47.320;15.998;2023-05-21T06:10:18;23.23;60.17
69938;DHT22;57248;47.320;15.998;2023-05-21T06:12:51;22.51;60.87
69938;DHT22;57248;47.320;15.998;2023-05-21T06:15:16;23.54;61.24
69938;DHT22;57248;47.320;15.998;2023-05-21T06:17:50;23.69;58.12
69938;DHT22;57248;47.320;15.998;2023-05-21T06:20:21;23.78;58.69
69938;DHT22;57248;47.320;15.998;2023-05-21T06:22:53;23.77;60.67
69938;DHT22;57248;47.320;15.998;2023-05-21T06:25:25;23.64;59.95
69938;DHT22;57248;47.320;15.998;2023-05-21T06:27:58;23.46;58.40
69938;DHT22;57248;47.320;15.998;2023-05-21T06:30:32;23.81;59.08
69938;DHT22;57248;47.320;15.998;2023-05-21T06:32:57;23.96;57.46
69938;DHT22;57248;47.320;15.998;2023-05-21T06:35:29;24.39;57.59
69938;DHT22;57248;47.320;15.998;2023-05-21T06:38:02;24.39;57.25
69938;DHT22;57248;47.320;15.998;2023-05-21T06:40:34;24.60;56.17
69938;DHT22;57248;47.320;15.998;2023-05-21T06:43:10;24.27;57.30
69938;DHT22;57248;47.320;15.998;2023-05-21T06:46:01;24.20;58.94
69938;DHT22;57248;47.320;15.998;2023-05-21T06:48:37;24.15;56.87
69938;DHT22;57248;47.320;15.998;2023-05-21T06:51:09;24.27;57.60
69938;DHT22;57248;47.320;15.998;2023-05-21T06:53:42;24.52;57.40
69938;DHT22;57248;47.320;15.998;2023-05-21T06:56:14;24.66;55.48
69938;DHT22;57248;47.320;15.998;2023-05-21T06:58:54;25.17;56.09
69938;DHT22;57248;47.320;15.998;2023-05-21T07:01:26;25.18;52.42
69938;DHT22;57248;47.320;15.998;2023-05-21T07:03:58;25.08;56.99
69938;DHT22;57248;47.320;15.998;2023-05-21T07:06:30;25.07;54.51
69938;DHT22;57248;47.320;15.998;2023-05-21T07:09:03;24.44;54.55
69938;DHT22;57248;47.320;15.998;2023-05-21T07:11:37;24.80;53.37
69938;DHT22;57248;47.320;15.998;2023-05-21T07:14:11;26.10;53.76
69938;DHT22;57248;47.320;15.998;2023-05-21T07:16:37;26.12;53.61
69938;DHT22;57248;47.320;15.998;2023-05-21T07:19:09;26.47;52.67
69938;DHT22;57248;47.320;15.998;2023-05-21T07:21:42;25.66;50.70
69938;DHT22;57248;47.320;15.998;2023-05-21T07:24:15;25.98;53.14
69938;DHT22;57248;47.320;15.998;2023-05-21T07:26:47;26.51;52.80
69938;DHT22;57248;47.320;15.998;2023-05-21T07:29:20;26.86;48.71
69938;DHT22;57248;47.320;15.998;2023-05-21T07:31:53;27.22;48.73
69938;DHT22;57248;47.320;15.998;2023-05-21T07:34:25;27.30;49.51
69938;DHT22;57248;47.320;15.998;2023-05-21T07:36:58;26.96;47.86
69938;DHT22;57248;47.320;15.998;2023-05-21T07:39:30;27.19;52.05
69938;DHT22;57248;47.320;15.998;2023-05-21T07:42:03;26.52;49.72
69938;DHT22;57248;47.320;15.998;2023-05-21T07:44:34;26.98;52.29
69938;DHT22;57248;47.320;15.998;2023-05-21T07:47:07;27.32;50.17
69938;DHT22;57248;47.320;15.998;2023-05-21T07:49:38;26.99;48.95
69938;DHT22;57248;47.320;15.998;2023-05-21T07:52:10;28.32;47.01
69938;DHT22;57248;47.320;15.998;2023-05-21T07:54:43;29.24;45.75
69938;DHT22;57248;47.320;15.998;2023-05-21T07:57:21;29.93;46.37
69938;DHT22;57248;47.320;15.998;2023-05-21T07:59:57;29.85;42.92
69938;DHT22;57248;47.320;15.998;2023-05-21T08:02:40;30.39;41.45
69938;DHT22;57248;47.320;15.998;2023-05-21T08:05:14;32.11;38.31
69938;DHT22;57248;47.320;15.998;2023-05-21T08:07:47;32.55;38.49
69938;DHT22;57248;47.320;15.998;2023-05-21T08:10:20;34.28;37.74
69938;DHT22;57248;47.320;15.998;2023-05-21T08:12:53;33.91;34.41
69938;DHT22;57248;47.320;15.998;2023-05-21T08:15:25;33.44;36.93
69938;DHT22;57248;47.320;15.998;2023-05-21T08:17:57;31.84;37.28
69938;DHT22;57248;47.320;15.998;2023-05-21T08:20:30;34.96;35.77
69938;DHT22;57248;47.320;15.998;2023-05-21T08:23:05;36.60;34.97
69938;DHT22;57248;47.320;15.998;2023-05-21T08:25:45;36.37;33.29
69938;DHT22;57248;47.320;15.998;2023-05-21T08:28:21;37.84;34.86
69938;DHT22;57248;47.320;15.998;2023-05-21T08:30:54;36.02;33.11
69938;DHT22;57248;47.320;15.998;2023-05-21T08:33:29;39.08;32.07
69938;DHT22;57248;47.320;15.998;2023-05-21T08:36:01;34.97;33.07
69938;DHT22;57248;47.320;15.998;2023-05-21T08:38:39;35.30;33.89
69938;DHT22;57248;47.320;15.998;2023-05-21T08:41:34;34.15;34.24
69938;DHT22;57248;47.320;15.998;2023-05-21T08:44:10;35.37;33.44
69938;DHT22;57248;47.320;15.998;2023-05-21T08:46:44;35.71;33.84
69938;DHT22;57248;47.320;15.998;2023-05-21T08:49:17;34.93;33.65
69938;DHT22;57248;47.320;15.998;2023-05-21T08:51:54;37.32;31.47
69938;DHT22;57248;47.320;15.998;2023-05-21T08:54:26;37.80;31.04
69938;DHT22;57248;47.320;15.998;2023-05-21T08:57:01;35.72;31.87
69938;DHT22;57248;47.320;15.998;2023-05-21T08:59:40;35.27;34.61
69938;DHT22;57248;47.320;15.998;2023-05-21T09:02:22;34.90;33.77
69938;DHT22;57248;47.320;15.998;2023-05-21T09:04:56;33.74;35.15
69938;DHT22;57248;47.320;15.998;2023-05-21T09:07:30;34.64;33.82
69938;DHT22;57248;47.320;15.998;2023-05-21T09:10:30;37.22;32.59
69938;DHT22;57248;47.320;15.998;2023-05-21T09:13:05;38.52;32.24
69938;DHT22;57248;47.320;15.998;2023-05-21T09:15:39;37.34;32.42
69938;DHT22;57248;47.320;15.998;2023-05-21T09:18:14;39.36;28.46
69938;DHT22;57248;47.320;15.998;2023-05-21T09:20:54;41.75;28.69
69938;DHT22;57248;47.320;15.998;2023-05-21T09:23:27;41.58;28.39
69938;DHT22;57248;47.320;15.998;2023-05-21T09:25:59;40.51;29.30
69938;DHT22;57248;47.320;15.998;2023-05-21T09:28:34;34.49;36.43
69938;DHT22;57248;47.320;15.998;2023-05-21T09:31:07;34.99;33.53
69938;DHT22;57248;47.320;15.998;2023-05-21T09:33:45;34.50;34.56
69938;DHT22;57248;47.320;15.998;2023-05-21T09:36:20;33.78;34.00
69938;DHT22;57248;47.320;15.998;2023-05-21T09:38:53;36.40;31.62
69938;DHT22;57248;47.320;15.998;2023-05-21T09:41:32;36.98;31.35
69938;DHT22;57248;47.320;15.998;2023-05-21T09:44:06;36.19;32.49
69938;DHT22;57248;47.320;15.998;2023-05-21T09:46:39;33.34;35.66
69938;DHT22;57248;47.320;15.998;2023-05-21T09:49:22;31.11;38.83
69938;DHT22;57248;47.320;15.998;2023-05-21T09:51:59;31.18;38.71
69938;DHT22;57248;47.320;15.998;2023-05-21T09:54:32;33.54;34.90
69938;DHT22;57248;47.320;15.998;2023-05-21T09:57:13;32.07;36.63
69938;DHT22;57248;47.320;15.998;2023-05-21T09:59:49;31.15;38.33
69938;DHT22;57248;47.320;15.998;2023-05-21T10:02:22;35.38;33.95
69938;DHT22;57248;47.320;15.998;2023-05-21T10:04:54;36.32;32.83
69938;DHT22;57248;47.320;15.998;2023-05-21T10:07:27;34.19;34.34
69938;DHT22;57248;47.320;15.998;2023-05-21T10:10:00;36.26;32.56
69938;DHT22;57248;47.320;15.998;2023-05-21T10:12:34;33.55;34.53
69938;DHT22;57248;47.320;15.998;2023-05-21T10:15:08;33.70;35.39
69938;DHT22;57248;47.320;15.998;2023-05-21T10:17:39;36.30;30.48
69938;DHT22;57248;47.320;15.998;2023-05-21T10:20:14;36.51;31.42
69938;DHT22;57248;47.320;15.998;2023-05-21T10:22:49;38.23;29.03
69938;DHT22;57248;47.320;15.998;2023-05-21T10:25:22;34.79;31.63
69938;DHT22;57248;47.320;15.998;2023-05-21T10:27:54;33.74;34.17
69938;DHT22;57248;47.320;15.998;2023-05-21T10:30:27;33.20;35.17
69938;DHT22;57248;47.320;15.998;2023-05-21T10:33:00;32.66;36.98
69938;DHT22;57248;47.320;15.998;2023-05-21T10:35:37;31.72;39.07
69938;DHT22;57248;47.320;15.998;2023-05-21T10:38:09;31.67;37.27
69938;DHT22;57248;47.320;15.998;2023-05-21T10:40:43;34.32;35.75
69938;DHT22;57248;47.320;15.998;2023-05-21T10:46:04;34.55;33.99
69938;DHT22;57248;47.320;15.998;2023-05-21T10:51:27;30.91;37.63
69938;DHT22;57248;47.320;15.998;2023-05-21T10:54:37;31.23;38.64
69938;DHT22;57248;47.320;15.998;2023-05-21T10:57:37;38.51;31.37
69938;DHT22;57248;47.320;15.998;2023-05-21T11:00:19;38.61;27.60
69938;DHT22;57248;47.320;15.998;2023-05-21T11:02:47;38.83;28.52
69938;DHT22;57248;47.320;15.998;2023-05-21T11:05:50;40.09;25.62
69938;DHT22;57248;47.320;15.998;2023-05-21T11:08:27;42.49;25.85
69938;DHT22;57248;47.320;15.998;2023-05-21T11:11:02;44.47;23.11
69938;DHT22;57248;47.320;15.998;2023-05-21T11:13:45;44.15;25.72
69938;DHT22;57248;47.320;15.998;2023-05-21T11:16:22;42.28;25.07
69938;DHT22;57248;47.320;15.998;2023-05-21T11:18:56;43.17;25.72
69938;DHT22;57248;47.320;15.998;2023-05-21T11:21:30;35.92;29.47
69938;DHT22;57248;47.320;15.998;2023-05-21T11:24:04;40.76;26.98
69938;DHT22;57248;47.320;15.998;2023-05-21T11:29:40;42.62;26.28
69938;DHT22;57248;47.320;15.998;2023-05-21T11:32:13;42.75;24.34
69938;DHT22;57248;47.320;15.998;2023-05-21T11:34:46;42.02;24.42
69938;DHT22;57248;47.320;15.998;2023-05-21T11:42:52;41.99;23.78
69938;DHT22;57248;47.320;15.998;2023-05-21T11:45:31;40.18;25.11
69938;DHT22;57248;47.320;15.998;2023-05-21T11:48:05;40.22;25.77
69938;DHT22;57248;47.320;15.998;2023-05-21T11:50:37;39.43;27.04
69938;DHT22;57248;47.320;15.998;2023-05-21T11:53:10;38.02;28.01
69938;DHT22;57248;47.320;15.998;2023-05-21T11:55:50;38.14;26.08
69938;DHT22;57248;47.320;15.998;2023-05-21T11:58:29;34.90;28.40
69938;DHT22;57248;47.320;15.998;2023-05-21T12:01:21;34.99;30.03
69938;DHT22;57248;47.320;15.998;2023-05-21T12:03:53;36.36;28.89
69938;DHT22;57248;47.320;15.998;2023-05-21T12:06:25;42.25;23.78
69938;DHT22;57248;47.320;15.998;2023-05-21T12:08:56;38.54;26.16
69938;DHT22;57248;47.320;15.998;2023-05-21T12:11:30;35.26;30.03
69938;DHT22;57248;47.320;15.998;2023-05-21T12:14:06;35.74;29.16
69938;DHT22;57248;47.320;15.998;2023-05-21T12:16:41;38.52;27.69
69938;DHT22;57248;47.320;15.998;2023-05-21T12:19:16;40.01;24.07
69938;DHT22;57248;47.320;15.998;2023-05-21T12:21:50;40.04;25.98
69938;DHT22;57248;47.320;15.998;2023-05-21T12:24:22;36.02;27.68
69938;DHT22;57248;47.320;15.998;2023-05-21T12:26:54;40.52;27.15
69938;DHT22;57248;47.320;15.998;2023-05-21T12:29:30;41.36;24.41
69938;DHT22;57248;47.320;15.998;2023-05-21T12:32:04;36.29;27.06
69938;DHT22;57248;47.320;15.998;2023-05-21T12:34:51;35.06;29.46
69938;DHT22;57248;47.320;15.998;2023-05-21T12:37:29;36.54;27.90
69938;DHT22;57248;47.320;15.998;2023-05-21T12:40:06;38.86;25.98
69938;DHT22;57248;47.320;15.998;2023-05-21T12:42:39;32.79;32.34
69938;DHT22;57248;47.320;15.998;2023-05-21T12:45:11;36.75;27.95
69938;DHT22;57248;47.320;15.998;2023-05-21T12:47:46;40.80;26.29
69938;DHT22;57248;47.320;15.998;2023-05-21T12:50:20;43.48;22.76
69938;DHT22;57248;47.320;15.998;2023-05-21T12:52:56;40.55;23.96
69938;DHT22;57248;47.320;15.998;2023-05-21T12:55:30;42.97;23.28
69938;DHT22;57248;47.320;15.998;2023-05-21T12:58:12;44.56;22.45
69938;DHT22;57248;47.320;15.998;2023-05-21T13:00:45;40.49;24.74
69938;DHT22;57248;47.320;15.998;2023-05-21T13:03:18;41.11;24.33
69938;DHT22;57248;47.320;15.998;2023-05-21T13:06:01;44.15;22.85
69938;DHT22;57248;47.320;15.998;2023-05-21T13:08:33;40.21;25.08
69938;DHT22;57248;47.320;15.998;2023-05-21T13:11:06;43.42;22.85
69938;DHT22;57248;47.320;15.998;2023-05-21T13:13:38;44.39;23.15
69938;DHT22;57248;47.320;15.998;2023-05-21T13:16:03;45.52;19.82
69938;DHT22;57248;47.320;15.998;2023-05-21T13:18:36;45.45;21.35
69938;DHT22;57248;47.320;15.998;2023-05-21T13:21:08;44.71;22.98
69938;DHT22;57248;47.320;15.998;2023-05-21T13:23:43;45.46;22.06
69938;DHT22;57248;47.320;15.998;2023-05-21T13:26:15;44.37;20.96
69938;DHT22;57248;47.320;15.998;2023-05-21T13:28:47;41.64;22.39
69938;DHT22;57248;47.320;15.998;2023-05-21T13:31:19;39.20;23.24
69938;DHT22;57248;47.320;15.998;2023-05-21T13:33:44;43.03;22.46
69938;DHT22;57248;47.320;15.998;2023-05-21T13:36:17;42.87;21.77
69938;DHT22;57248;47.320;15.998;2023-05-21T13:38:49;41.86;22.94
69938;DHT22;57248;47.320;15.998;2023-05-21T13:41:21;44.40;22.55
69938;DHT22;57248;47.320;15.998;2023-05-21T13:43:47;44.84;20.41
69938;DHT22;57248;47.320;15.998;2023-05-21T13:46:19;40.48;23.85
69938;DHT22;57248;47.320;15.998;2023-05-21T13:48:51;37.73;25.08
69938;DHT22;57248;47.320;15.998;2023-05-21T13:51:23;41.58;22.96
69938;DHT22;57248;47.320;15.998;2023-05-21T13:53:55;42.05;22.62
69938;DHT22;57248;47.320;15.998;2023-05-21T13:56:27;41.37;23.63
69938;DHT22;57248;47.320;15.998;2023-05-21T13:58:59;42.59;21.89
69938;DHT22;57248;47.320;15.998;2023-05-21T14:01:39;41.88;21.53
69938;DHT22;57248;47.320;15.998;2023-05-21T14:04:12;42.56;21.37
69938;DHT22;57248;47.320;15.998;2023-05-21T14:06:45;41.30;22.94
69938;DHT22;57248;47.320;15.998;2023-05-21T14:09:18;38.95;24.63
69938;DHT22;57248;47.320;15.998;2023-05-21T14:11:50;37.83;26.36
69938;DHT22;57248;47.320;15.998;2023-05-21T14:14:22;35.31;28.39
69938;DHT22;57248;47.320;15.998;2023-05-21T14:16:54;37.10;27.07
69938;DHT22;57248;47.320;15.998;2023-05-21T14:19:27;39.20;25.47
69938;DHT22;57248;47.320;15.998;2023-05-21T14:21:59;41.86;21.65
69938;DHT22;57248;47.320;15.998;2023-05-21T14:24:32;39.74;24.40
69938;DHT22;57248;47.320;15.998;2023-05-21T14:27:04;42.91;21.49
69938;DHT22;57248;47.320;15.998;2023-05-21T14:29:29;38.75;25.10
69938;DHT22;57248;47.320;15.998;2023-05-21T14:32:02;39.19;25.57
69938;DHT22;57248;47.320;15.998;2023-05-21T14:34:34;41.27;22.34
69938;DHT22;57248;47.320;15.998;2023-05-21T14:37:06;40.96;23.22
69938;DHT22;57248;47.320;15.998;2023-05-21T14:39:39;38.30;25.02
69938;DHT22;57248;47.320;15.998;2023-05-21T14:42:12;40.95;22.57
69938;DHT22;57248;47.320;15.998;2023-05-21T14:44:44;40.09;23.50
69938;DHT22;57248;47.320;15.998;2023-05-21T14:47:18;42.78;22.67
69938;DHT22;57248;47.320;15.998;2023-05-21T14:49:52;40.12;23.16
69938;DHT22;57248;47.320;15.998;2023-05-21T14:52:24;41.65;23.94
69938;DHT22;57248;47.320;15.998;2023-05-21T14:54:57;39.70;23.97
69938;DHT22;57248;47.320;15.998;2023-05-21T14:57:35;39.77;24.87
69938;DHT22;57248;47.320;15.998;2023-05-21T15:00:09;40.65;24.83
69938;DHT22;57248;47.320;15.998;2023-05-21T15:02:42;37.58;26.58
69938;DHT22;57248;47.320;15.998;2023-05-21T15:05:14;34.00;31.61
69938;DHT22;57248;47.320;15.998;2023-05-21T15:07:47;30.29;34.86
69938;DHT22;57248;47.320;15.998;2023-05-21T15:10:20;36.13;27.90
69938;DHT22;57248;47.320;15.998;2023-05-21T15:12:53;39.15;24.89
69938;DHT22;57248;47.320;15.998;2023-05-21T15:15:25;37.14;25.92
69938;DHT22;57248;47.320;15.998;2023-05-21T15:17:57;32.14;31.88
69938;DHT22;57248;47.320;15.998;2023-05-21T15:20:29;33.37;29.77
69938;DHT22;57248;47.320;15.998;2023-05-21T15:23:01;31.53;32.32
69938;DHT22;57248;47.320;15.998;2023-05-21T15:25:36;30.79;33.50
69938;DHT22;57248;47.320;15.998;2023-05-21T15:28:09;34.96;29.31
69938;DHT22;57248;47.320;15.998;2023-05-21T15:30:43;34.63;28.56
69938;DHT22;57248;47.320;15.998;2023-05-21T15:33:15;30.92;32.70
69938;DHT22;57248;47.320;15.998;2023-05-21T15:35:47;29.83;35.11
69938;DHT22;57248;47.320;15.998;2023-05-21T15:38:19;29.28;36.14
69938;DHT22;57248;47.320;15.998;2023-05-21T15:40:51;27.53;39.06
69938;DHT22;57248;47.320;15.998;2023-05-21T15:43:24;29.25;38.75
69938;DHT22;57248;47.320;15.998;2023-05-21T15:45:56;30.99;36.16
69938;DHT22;57248;47.320;15.998;2023-05-21T15:48:28;33.29;32.40
69938;DHT22;57248;47.320;15.998;2023-05-21T15:51:00;32.27;33.01
69938;DHT22;57248;47.320;15.998;2023-05-21T15:53:32;32.41;32.71
69938;DHT22;57248;47.320;15.998;2023-05-21T15:56:06;30.20;35.36
69938;DHT22;57248;47.320;15.998;2023-05-21T15:58:40;30.30;36.49
69938;DHT22;57248;47.320;15.998;2023-05-21T16:01:12;29.69;36.09
69938;DHT22;57248;47.320;15.998;2023-05-21T16:03:45;29.52;36.59
69938;DHT22;57248;47.320;15.998;2023-05-21T16:06:17;30.08;35.60
69938;DHT22;57248;47.320;15.998;2023-05-21T16:08:56;29.76;35.42
69938;DHT22;57248;47.320;15.998;2023-05-21T16:11:29;30.21;35.73